createdAt,value
2023-05-25T00:00:53.445Z,77.93
2023-05-25T00:03:27.774Z,77.28
2023-05-25T00:05:54.541Z,77.13
2023-05-25T00:08:21.159Z,77.64
2023-05-25T00:10:47.616Z,77.85
2023-05-25T00:13:14.059Z,76.84
2023-05-25T00:15:40.883Z,77.34
2023-05-25T00:18:07.438Z,77.45
2023-05-25T00:20:34.630Z,77.55
2023-05-25T00:23:02.357Z,77.39
2023-05-25T00:25:29.676Z,77.92
2023-05-25T00:27:56.154Z,77.74
2023-05-25T00:30:22.692Z,77.80
2023-05-25T00:32:49.159Z,78.05
2023-05-25T00:35:15.724Z,78.32
2023-05-25T00:37:42.225Z,78.32
2023-05-25T00:40:14.385Z,78.61
2023-05-25T00:42:41.149Z,79.00
2023-05-25T00:45:08.010Z,79.29
2023-05-25T00:47:34.552Z,78.77
2023-05-25T00:50:02.023Z,79.05
2023-05-25T00:52:28.816Z,79.29
2023-05-25T00:54:59.650Z,79.41
2023-05-25T00:57:29.888Z,79.12
2023-05-25T00:59:58.079Z,78.87
2023-05-25T01:02:29.119Z,78.81
2023-05-25T01:05:00.926Z,78.99
2023-05-25T01:07:30.993Z,79.13
2023-05-25T01:09:59.959Z,79.04
2023-05-25T01:12:32.057Z,78.79
2023-05-25T01:15:00.770Z,79.33
2023-05-25T01:17:28.996Z,78.98
2023-05-25T01:20:09.505Z,79.15
2023-05-25T01:22:47.821Z,79.53
2023-05-25T01:25:23.071Z,79.71
2023-05-25T01:27:57.220Z,79.43
2023-05-25T01:30:26.355Z,79.80
2023-05-25T01:32:55.020Z,79.82
2023-05-25T01:35:22.898Z,80.38
2023-05-25T01:37:51.746Z,80.04
2023-05-25T01:40:18.203Z,79.46
2023-05-25T01:42:44.663Z,79.52
2023-05-25T01:45:13.096Z,79.70
2023-05-25T01:47:42.507Z,79.66
2023-05-25T01:50:31.363Z,79.55
2023-05-25T01:53:04.118Z,79.72
2023-05-25T01:55:39.287Z,80.02
2023-05-25T01:58:08.064Z,79.82
2023-05-25T02:00:35.771Z,79.37
2023-05-25T02:03:02.598Z,79.42
2023-05-25T02:05:29.140Z,79.85
2023-05-25T02:07:55.756Z,80.04
2023-05-25T02:10:22.192Z,80.11
2023-05-25T02:12:48.658Z,80.30
2023-05-25T02:15:16.081Z,80.36
2023-05-25T02:17:43.275Z,79.86
2023-05-25T02:20:11.183Z,80.13
2023-05-25T02:22:38.177Z,79.82
2023-05-25T02:25:05.706Z,80.04
2023-05-25T02:27:32.180Z,79.54
2023-05-25T02:29:58.681Z,80.45
2023-05-25T02:32:25.143Z,79.93
2023-05-25T02:34:51.693Z,80.24
2023-05-25T02:37:18.137Z,80.09
2023-05-25T02:39:44.605Z,80.30
2023-05-25T02:42:11.291Z,80.05
2023-05-25T02:44:37.762Z,79.64
2023-05-25T02:47:04.468Z,80.70
2023-05-25T02:49:30.994Z,80.44
2023-05-25T02:51:57.499Z,80.13
2023-05-25T02:54:23.922Z,80.69
2023-05-25T02:56:50.511Z,80.55
2023-05-25T02:59:16.979Z,79.91
2023-05-25T03:01:43.404Z,80.37
2023-05-25T03:04:09.913Z,80.64
2023-05-25T03:06:36.663Z,80.06
2023-05-25T03:09:05.107Z,80.11
2023-05-25T03:11:31.552Z,80.11
2023-05-25T03:13:58.007Z,80.92
2023-05-25T03:16:24.508Z,80.69
2023-05-25T03:18:50.957Z,80.38
2023-05-25T03:21:17.386Z,80.69
2023-05-25T03:23:44.080Z,80.91
2023-05-25T03:26:10.958Z,80.69
2023-05-25T03:28:37.378Z,80.69
2023-05-25T03:31:04.600Z,80.85
2023-05-25T03:33:31.125Z,80.87
2023-05-25T03:35:57.605Z,80.83
2023-05-25T03:38:24.062Z,81.05
2023-05-25T03:40:50.712Z,80.25
2023-05-25T03:43:17.372Z,80.82
2023-05-25T03:45:44.008Z,80.72
2023-05-25T03:48:10.738Z,80.51
2023-05-25T03:50:37.271Z,80.42
2023-05-25T03:53:03.731Z,80.19
2023-05-25T03:55:30.791Z,79.95
2023-05-25T03:57:57.285Z,80.19
2023-05-25T04:00:24.092Z,80.01
2023-05-25T04:02:50.946Z,79.89
2023-05-25T04:05:17.475Z,79.73
2023-05-25T04:07:44.361Z,79.81
2023-05-25T04:10:11.370Z,80.84
2023-05-25T04:12:38.512Z,79.75
2023-05-25T04:15:08.966Z,79.88
2023-05-25T04:17:39.064Z,79.81
2023-05-25T04:20:06.970Z,79.98
2023-05-25T04:22:33.570Z,79.91
2023-05-25T04:25:00.051Z,79.97
2023-05-25T04:27:26.747Z,79.63
2023-05-25T04:29:54.183Z,79.86
2023-05-25T04:32:21.521Z,79.92
2023-05-25T04:34:48.364Z,79.48
2023-05-25T04:37:14.853Z,79.49
2023-05-25T04:39:41.303Z,79.25
2023-05-25T04:42:07.772Z,79.22
2023-05-25T04:44:34.314Z,79.03
2023-05-25T04:47:01.341Z,79.29
2023-05-25T04:49:28.174Z,78.61
2023-05-25T04:51:54.702Z,78.63
2023-05-25T04:54:21.953Z,78.31
2023-05-25T04:56:48.414Z,78.85
2023-05-25T04:59:14.859Z,78.25
2023-05-25T05:01:41.490Z,78.06
2023-05-25T05:04:08.408Z,77.94
2023-05-25T05:06:36.608Z,77.31
2023-05-25T05:09:03.509Z,77.31
2023-05-25T05:11:30.342Z,77.11
2023-05-25T05:13:57.119Z,77.25
2023-05-25T05:16:23.681Z,77.14
2023-05-25T05:18:50.574Z,77.17
2023-05-25T05:21:17.156Z,76.70
2023-05-25T05:23:43.992Z,76.22
2023-05-25T05:26:11.591Z,76.61
2023-05-25T05:28:38.216Z,75.85
2023-05-25T05:31:04.725Z,75.06
2023-05-25T05:33:31.418Z,74.71
2023-05-25T05:35:57.983Z,74.51
2023-05-25T05:38:24.508Z,74.19
2023-05-25T05:40:50.978Z,72.72
2023-05-25T05:43:17.645Z,71.10
2023-05-25T05:45:44.311Z,70.41
2023-05-25T05:48:11.071Z,68.43
2023-05-25T05:50:40.968Z,70.25
2023-05-25T05:53:09.690Z,67.89
2023-05-25T05:55:36.166Z,68.00
2023-05-25T05:58:02.641Z,66.62
2023-05-25T06:00:29.304Z,67.23
2023-05-25T06:02:56.067Z,66.23
2023-05-25T06:05:23.126Z,65.60
2023-05-25T06:07:49.586Z,65.06
2023-05-25T06:10:16.230Z,65.36
2023-05-25T06:12:42.778Z,65.75
2023-05-25T06:15:09.736Z,65.34
2023-05-25T06:17:37.025Z,65.77
2023-05-25T06:20:03.774Z,65.32
2023-05-25T06:22:30.302Z,65.82
2023-05-25T06:24:56.797Z,63.99
2023-05-25T06:27:23.550Z,64.53
2023-05-25T06:29:50.018Z,63.01
2023-05-25T06:32:16.667Z,62.82
2023-05-25T06:34:43.215Z,63.04
2023-05-25T06:37:09.718Z,62.69
2023-05-25T06:39:36.223Z,62.88
2023-05-25T06:42:02.669Z,63.12
2023-05-25T06:44:29.765Z,63.20
2023-05-25T06:46:56.214Z,63.79
2023-05-25T06:49:22.700Z,63.28
2023-05-25T06:51:51.107Z,62.70
2023-05-25T06:54:17.661Z,62.52
2023-05-25T06:56:44.139Z,62.80
2023-05-25T06:59:10.607Z,61.31
2023-05-25T07:01:37.494Z,61.46
2023-05-25T07:04:04.054Z,61.96
2023-05-25T07:06:30.479Z,61.53
2023-05-25T07:08:56.988Z,62.47
2023-05-25T07:11:23.481Z,61.09
2023-05-25T07:13:49.978Z,62.60
2023-05-25T07:16:16.874Z,61.13
2023-05-25T07:18:43.378Z,59.92
2023-05-25T07:21:11.132Z,58.99
2023-05-25T07:23:38.348Z,57.78
2023-05-25T07:26:06.012Z,58.87
2023-05-25T07:28:32.816Z,58.81
2023-05-25T07:30:59.321Z,58.21
2023-05-25T07:33:25.958Z,59.81
2023-05-25T07:35:52.459Z,59.27
2023-05-25T07:38:18.921Z,59.95
2023-05-25T07:40:47.919Z,58.98
2023-05-25T07:43:14.561Z,58.43
2023-05-25T07:45:40.978Z,57.99
2023-05-25T07:48:07.970Z,58.70
2023-05-25T07:50:34.501Z,58.75
2023-05-25T07:53:01.139Z,56.77
2023-05-25T07:55:27.555Z,55.73
2023-05-25T07:57:54.312Z,54.79
2023-05-25T08:00:21.185Z,55.08
2023-05-25T08:02:47.820Z,56.56
2023-05-25T08:05:14.580Z,56.53
2023-05-25T08:07:42.798Z,57.20
2023-05-25T08:10:09.900Z,56.17
2023-05-25T08:12:47.984Z,56.64
2023-05-25T08:15:16.577Z,55.63
2023-05-25T08:17:43.277Z,53.93
2023-05-25T08:20:10.550Z,53.78
2023-05-25T08:22:37.313Z,51.28
2023-05-25T08:25:05.195Z,49.89
2023-05-25T08:27:34.416Z,51.21
2023-05-25T08:30:02.631Z,50.45
2023-05-25T08:32:29.101Z,53.73
2023-05-25T08:34:55.722Z,51.21
2023-05-25T08:37:22.580Z,48.49
2023-05-25T08:39:49.012Z,47.82
2023-05-25T08:42:15.621Z,47.38
2023-05-25T08:44:42.347Z,49.79
2023-05-25T08:47:08.818Z,50.27
2023-05-25T08:49:38.461Z,48.57
2023-05-25T08:52:05.958Z,48.00
2023-05-25T08:54:36.074Z,47.49
2023-05-25T08:57:06.022Z,48.80
2023-05-25T08:59:42.725Z,48.13
2023-05-25T09:02:31.284Z,48.06
2023-05-25T09:05:01.263Z,45.67
2023-05-25T09:07:28.844Z,45.77
2023-05-25T09:09:55.471Z,44.85
2023-05-25T09:12:24.967Z,45.13
2023-05-25T09:14:53.610Z,42.99
2023-05-25T09:17:21.154Z,43.20
2023-05-25T09:19:47.836Z,41.11
2023-05-25T09:22:16.405Z,43.71
2023-05-25T09:24:44.546Z,40.87
2023-05-25T09:27:12.910Z,41.69
2023-05-25T09:29:39.387Z,41.96
2023-05-25T09:32:09.169Z,41.73
2023-05-25T09:34:35.891Z,41.72
2023-05-25T09:37:19.005Z,42.03
2023-05-25T09:39:46.101Z,40.10
2023-05-25T09:42:12.628Z,38.99
2023-05-25T09:44:40.555Z,37.71
2023-05-25T09:47:07.230Z,37.21
2023-05-25T09:49:33.757Z,37.86
2023-05-25T09:52:00.678Z,38.77
2023-05-25T09:54:27.482Z,36.97
2023-05-25T09:56:54.343Z,37.21
2023-05-25T09:59:23.270Z,37.13
2023-05-25T10:01:55.891Z,37.73
2023-05-25T10:04:22.507Z,37.50
2023-05-25T10:06:52.114Z,37.82
2023-05-25T10:09:19.802Z,37.44
2023-05-25T10:11:48.070Z,37.80
2023-05-25T10:14:20.015Z,36.72
2023-05-25T10:16:50.429Z,35.29
2023-05-25T10:19:21.910Z,37.84
2023-05-25T10:21:58.256Z,37.39
2023-05-25T10:24:34.225Z,36.02
2023-05-25T10:27:14.548Z,34.23
2023-05-25T10:29:51.839Z,35.33
2023-05-25T10:32:19.079Z,35.17
2023-05-25T10:34:46.697Z,35.77
2023-05-25T10:37:14.748Z,34.69
2023-05-25T10:39:44.033Z,34.48
2023-05-25T10:42:11.362Z,36.14
2023-05-25T10:44:38.670Z,36.46
2023-05-25T10:47:06.325Z,36.44
2023-05-25T10:49:34.064Z,34.50
2023-05-25T10:52:02.392Z,33.85
2023-05-25T10:54:36.124Z,34.15
2023-05-25T10:57:14.169Z,32.81
2023-05-25T10:59:41.527Z,33.92
2023-05-25T11:02:09.264Z,32.80
2023-05-25T11:04:37.644Z,33.83
2023-05-25T11:07:10.684Z,32.82
2023-05-25T11:09:41.371Z,31.68
2023-05-25T11:12:08.526Z,33.11
2023-05-25T11:14:42.140Z,31.39
2023-05-25T11:17:18.382Z,29.44
2023-05-25T11:19:56.197Z,30.49
2023-05-25T11:22:35.383Z,31.71
2023-05-25T11:25:23.783Z,30.61
2023-05-25T11:27:54.155Z,30.86
2023-05-25T11:30:20.640Z,31.60
2023-05-25T11:32:50.733Z,32.36
2023-05-25T11:35:17.455Z,30.34
2023-05-25T11:37:50.684Z,31.58
2023-05-25T11:40:17.368Z,32.38
2023-05-25T11:42:48.243Z,32.08
2023-05-25T11:45:14.927Z,30.06
2023-05-25T11:47:41.561Z,31.52
2023-05-25T11:50:14.940Z,31.55
2023-05-25T11:52:41.558Z,30.33
2023-05-25T11:55:13.259Z,30.79
2023-05-25T11:57:40.602Z,30.80
2023-05-25T12:00:11.219Z,29.86
2023-05-25T12:02:39.192Z,31.40
2023-05-25T12:05:07.867Z,29.99
2023-05-25T12:07:43.994Z,30.60
2023-05-25T12:10:12.318Z,29.88
2023-05-25T12:12:41.794Z,29.29
2023-05-25T12:15:13.907Z,29.02
2023-05-25T12:17:42.385Z,28.54
2023-05-25T12:20:11.005Z,29.40
2023-05-25T12:22:39.552Z,26.93
2023-05-25T12:25:10.599Z,27.12
2023-05-25T12:27:37.413Z,28.58
2023-05-25T12:30:05.172Z,27.78
2023-05-25T12:32:31.922Z,27.05
2023-05-25T12:35:05.607Z,30.01
2023-05-25T12:37:32.788Z,27.42
2023-05-25T12:40:00.207Z,27.83
2023-05-25T12:42:27.434Z,26.63
2023-05-25T12:44:58.050Z,28.45
2023-05-25T12:47:27.851Z,26.82
2023-05-25T12:50:13.933Z,27.45
2023-05-25T12:52:45.059Z,26.79
2023-05-25T12:55:28.082Z,27.06
2023-05-25T12:57:58.023Z,26.20
2023-05-25T13:00:32.139Z,25.84
2023-05-25T13:02:59.368Z,27.68
2023-05-25T13:05:28.690Z,26.40
2023-05-25T13:07:57.295Z,29.80
2023-05-25T13:10:24.895Z,27.49
2023-05-25T13:12:53.511Z,26.13
2023-05-25T13:15:21.580Z,26.74
2023-05-25T13:17:50.367Z,28.24
2023-05-25T13:20:19.092Z,29.44
2023-05-25T13:22:47.120Z,28.47
2023-05-25T13:25:14.772Z,28.61
2023-05-25T13:27:48.400Z,29.18
2023-05-25T13:30:15.327Z,28.84
2023-05-25T13:32:43.492Z,29.31
2023-05-25T13:35:18.199Z,27.60
2023-05-25T13:37:47.840Z,30.75
2023-05-25T13:40:14.626Z,31.97
2023-05-25T13:42:41.267Z,30.43
2023-05-25T13:45:08.361Z,30.54
2023-05-25T13:47:34.969Z,31.00
2023-05-25T13:50:01.552Z,31.76
2023-05-25T13:52:28.729Z,31.16
2023-05-25T13:54:55.220Z,31.73
2023-05-25T13:57:22.593Z,30.69
2023-05-25T13:59:49.281Z,31.79
2023-05-25T14:02:15.950Z,31.85
2023-05-25T14:04:42.484Z,31.13
2023-05-25T14:07:08.920Z,31.86
2023-05-25T14:09:35.557Z,33.46
2023-05-25T14:12:03.022Z,32.39
2023-05-25T14:14:31.960Z,33.84
2023-05-25T14:17:00.275Z,32.35
2023-05-25T14:19:26.983Z,32.85
2023-05-25T14:22:11.079Z,34.78
2023-05-25T14:24:39.443Z,32.84
2023-05-25T14:27:07.173Z,31.11
2023-05-25T14:29:33.908Z,31.76
2023-05-25T14:32:00.587Z,32.73
2023-05-25T14:34:27.865Z,32.99
2023-05-25T14:36:54.407Z,34.01
2023-05-25T14:39:20.841Z,34.50
2023-05-25T14:41:47.284Z,34.60
2023-05-25T14:44:13.956Z,34.12
2023-05-25T14:46:40.466Z,35.54
2023-05-25T14:49:06.906Z,34.17
2023-05-25T14:51:33.446Z,34.35
2023-05-25T14:54:03.380Z,34.38
2023-05-25T14:56:29.743Z,34.77
2023-05-25T14:58:56.217Z,33.81
2023-05-25T15:01:25.178Z,34.42
2023-05-25T15:03:52.517Z,34.90
2023-05-25T15:06:19.144Z,34.78
2023-05-25T15:08:45.796Z,34.28
2023-05-25T15:11:12.244Z,35.92
2023-05-25T15:13:40.590Z,34.67
2023-05-25T15:16:07.116Z,35.41
2023-05-25T15:18:33.611Z,34.77
2023-05-25T15:21:00.143Z,34.44
2023-05-25T15:23:26.612Z,33.88
2023-05-25T15:25:53.085Z,33.94
2023-05-25T15:28:19.577Z,34.11
2023-05-25T15:30:46.087Z,36.02
2023-05-25T15:33:13.802Z,36.57
2023-05-25T15:35:40.520Z,35.96
2023-05-25T15:38:07.025Z,36.00
2023-05-25T15:40:33.565Z,35.07
2023-05-25T15:43:00.058Z,35.38
2023-05-25T15:45:26.729Z,35.65
2023-05-25T15:47:53.240Z,35.93
2023-05-25T15:50:19.827Z,35.73
2023-05-25T15:52:46.806Z,36.20
2023-05-25T15:55:13.305Z,35.91
2023-05-25T15:57:39.736Z,36.04
2023-05-25T16:00:06.778Z,37.74
2023-05-25T16:02:33.396Z,37.68
2023-05-25T16:04:59.855Z,37.66
2023-05-25T16:07:26.495Z,37.05
2023-05-25T16:09:52.959Z,36.74
2023-05-25T16:12:19.591Z,37.53
2023-05-25T16:17:12.621Z,38.34
2023-05-25T16:19:39.047Z,38.91
2023-05-25T16:22:06.452Z,37.34
2023-05-25T16:24:32.888Z,38.64
2023-05-25T16:26:59.369Z,39.28
2023-05-25T16:29:25.848Z,38.56
2023-05-25T16:31:53.479Z,39.26
2023-05-25T16:34:20.079Z,40.10
2023-05-25T16:36:46.493Z,39.05
2023-05-25T16:39:13.156Z,38.25
2023-05-25T16:41:41.223Z,39.90
2023-05-25T16:44:08.391Z,39.09
2023-05-25T16:46:34.834Z,38.52
2023-05-25T16:49:01.487Z,39.25
2023-05-25T16:51:27.983Z,38.02
2023-05-25T16:53:54.456Z,37.03
2023-05-25T16:56:21.454Z,36.92
2023-05-25T16:58:48.779Z,38.74
2023-05-25T17:01:15.440Z,38.40
2023-05-25T17:03:42.078Z,39.02
2023-05-25T17:06:08.649Z,37.48
2023-05-25T17:08:36.342Z,38.71
2023-05-25T17:11:02.814Z,38.59
2023-05-25T17:13:29.225Z,38.52
2023-05-25T17:15:55.745Z,36.59
2023-05-25T17:18:22.338Z,38.47
2023-05-25T17:20:48.940Z,38.62
2023-05-25T17:23:18.265Z,39.60
2023-05-25T17:25:45.017Z,38.77
2023-05-25T17:28:11.766Z,38.81
2023-05-25T17:30:38.193Z,39.63
2023-05-25T17:33:04.842Z,40.04
2023-05-25T17:35:31.393Z,39.40
2023-05-25T17:37:57.812Z,39.60
2023-05-25T17:40:24.244Z,40.53
2023-05-25T17:42:50.668Z,41.11
2023-05-25T17:45:17.191Z,41.34
2023-05-25T17:47:43.659Z,41.01
2023-05-25T17:50:10.406Z,41.77
2023-05-25T17:52:36.848Z,41.97
2023-05-25T17:55:04.050Z,42.68
2023-05-25T17:57:30.524Z,42.06
2023-05-25T17:59:57.143Z,42.83
2023-05-25T18:02:26.311Z,42.44
2023-05-25T18:04:52.828Z,42.91
2023-05-25T18:07:20.877Z,42.13
2023-05-25T18:09:47.313Z,42.69
2023-05-25T18:12:13.761Z,42.97
2023-05-25T18:14:40.242Z,43.67
2023-05-25T18:17:06.736Z,43.92
2023-05-25T18:19:33.256Z,44.28
2023-05-25T18:21:59.711Z,43.70
2023-05-25T18:24:26.368Z,44.36
2023-05-25T18:26:52.806Z,43.70
2023-05-25T18:29:19.488Z,44.03
2023-05-25T18:31:48.528Z,44.80
2023-05-25T18:34:15.257Z,44.59
2023-05-25T18:36:41.733Z,45.19
2023-05-25T18:39:08.202Z,45.89
2023-05-25T18:41:34.682Z,46.41
2023-05-25T18:44:01.117Z,45.87
2023-05-25T18:46:28.583Z,46.09
2023-05-25T18:48:55.772Z,45.78
2023-05-25T18:51:25.503Z,46.58
2023-05-25T18:53:51.964Z,47.10
2023-05-25T18:56:18.417Z,48.10
2023-05-25T18:58:44.935Z,46.82
2023-05-25T19:01:11.355Z,46.21
2023-05-25T19:03:37.921Z,45.98
2023-05-25T19:06:04.745Z,46.34
2023-05-25T19:08:31.177Z,46.22
2023-05-25T19:10:57.602Z,46.65
2023-05-25T19:13:24.473Z,46.09
2023-05-25T19:15:51.001Z,46.75
2023-05-25T19:18:17.598Z,46.94
2023-05-25T19:20:44.128Z,47.03
2023-05-25T19:23:10.653Z,46.88
2023-05-25T19:25:37.086Z,47.51
2023-05-25T19:28:03.552Z,48.18
2023-05-25T19:30:29.965Z,47.80
2023-05-25T19:32:56.443Z,48.08
2023-05-25T19:35:22.918Z,48.48
2023-05-25T19:37:49.395Z,48.70
2023-05-25T19:40:15.877Z,49.08
2023-05-25T19:42:42.476Z,48.86
2023-05-25T19:45:09.190Z,49.01
2023-05-25T19:47:35.891Z,50.18
2023-05-25T19:50:02.817Z,49.46
2023-05-25T19:52:29.265Z,50.38
2023-05-25T19:54:55.790Z,50.25
2023-05-25T19:57:22.302Z,51.24
2023-05-25T19:59:50.428Z,51.24
2023-05-25T20:02:17.084Z,50.57
2023-05-25T20:04:43.568Z,51.19
2023-05-25T20:07:10.230Z,51.23
2023-05-25T20:09:38.462Z,51.37
2023-05-25T20:12:06.246Z,51.93
2023-05-25T20:14:33.677Z,52.16
2023-05-25T20:17:00.355Z,51.35
2023-05-25T20:19:26.929Z,51.76
2023-05-25T20:21:53.436Z,52.54
2023-05-25T20:24:19.929Z,52.34
2023-05-25T20:26:46.373Z,52.38
2023-05-25T20:29:12.907Z,53.46
2023-05-25T20:31:40.250Z,53.79
2023-05-25T20:34:07.218Z,53.73
2023-05-25T20:36:33.624Z,54.52
2023-05-25T20:39:00.347Z,53.97
2023-05-25T20:41:27.045Z,54.83
2023-05-25T20:43:53.483Z,54.44
2023-05-25T20:46:20.024Z,55.31
2023-05-25T20:48:46.523Z,55.50
2023-05-25T20:51:14.195Z,55.65
2023-05-25T20:53:40.863Z,55.98
2023-05-25T20:56:07.356Z,55.98
2023-05-25T20:58:33.826Z,56.28
2023-05-25T21:01:00.510Z,56.48
2023-05-25T21:03:27.034Z,56.71
2023-05-25T21:05:53.591Z,56.96
2023-05-25T21:08:20.068Z,57.37
2023-05-25T21:10:46.486Z,57.54
2023-05-25T21:13:12.916Z,57.82
2023-05-25T21:15:39.407Z,57.91
2023-05-25T21:18:07.023Z,58.38
2023-05-25T21:20:33.732Z,59.22
2023-05-25T21:23:02.381Z,59.91
2023-05-25T21:25:32.009Z,59.87
2023-05-25T21:27:58.454Z,59.80
2023-05-25T21:30:24.953Z,59.75
2023-05-25T21:32:51.582Z,59.66
2023-05-25T21:35:18.255Z,60.65
2023-05-25T21:37:45.531Z,61.00
2023-05-25T21:40:12.590Z,61.33
2023-05-25T21:42:39.000Z,61.44
2023-05-25T21:45:05.828Z,61.94
2023-05-25T21:47:32.307Z,61.96
2023-05-25T21:49:58.721Z,62.38
2023-05-25T21:52:25.260Z,61.85
2023-05-25T21:54:51.696Z,62.46
2023-05-25T21:57:18.152Z,62.73
2023-05-25T21:59:44.576Z,62.61
2023-05-25T22:02:11.230Z,63.16
2023-05-25T22:04:37.724Z,63.10
2023-05-25T22:07:04.398Z,63.30
2023-05-25T22:09:31.817Z,63.17
2023-05-25T22:11:58.233Z,63.40
2023-05-25T22:14:24.646Z,64.01
2023-05-25T22:16:51.187Z,64.26
2023-05-25T22:19:17.684Z,63.82
2023-05-25T22:21:44.161Z,64.63
2023-05-25T22:24:10.716Z,64.90
2023-05-25T22:26:37.214Z,64.95
2023-05-25T22:29:03.699Z,65.00
2023-05-25T22:31:30.220Z,65.22
2023-05-25T22:33:56.702Z,65.17
2023-05-25T22:36:23.341Z,66.14
2023-05-25T22:38:49.763Z,65.65
2023-05-25T22:41:31.676Z,65.87
2023-05-25T22:43:58.227Z,66.66
2023-05-25T22:46:24.687Z,66.56
2023-05-25T22:48:51.646Z,66.22
2023-05-25T22:51:18.119Z,66.91
2023-05-25T22:53:44.564Z,67.28
2023-05-25T22:56:11.467Z,66.99
2023-05-25T22:58:38.050Z,66.63
2023-05-25T23:01:04.510Z,66.36
2023-05-25T23:03:31.017Z,67.15
2023-05-25T23:05:57.558Z,67.06
2023-05-25T23:08:24.042Z,67.17
2023-05-25T23:10:50.645Z,67.58
2023-05-25T23:13:18.668Z,67.64
2023-05-25T23:15:45.564Z,67.61
2023-05-25T23:18:12.260Z,67.62
2023-05-25T23:20:38.789Z,68.13
2023-05-25T23:23:05.345Z,67.60
2023-05-25T23:25:31.827Z,67.87
2023-05-25T23:27:58.256Z,67.57
2023-05-25T23:30:24.678Z,67.82
2023-05-25T23:32:51.610Z,68.08
2023-05-25T23:35:18.067Z,68.31
2023-05-25T23:37:44.564Z,67.67
2023-05-25T23:40:12.009Z,67.81
2023-05-25T23:42:39.871Z,67.97
2023-05-25T23:45:08.180Z,67.87
2023-05-25T23:47:34.843Z,68.95
2023-05-25T23:50:01.505Z,69.02
2023-05-25T23:52:28.056Z,68.22
2023-05-25T23:54:54.456Z,68.72
2023-05-25T23:57:20.879Z,69.02
2023-05-25T23:59:47.298Z,69.21
